createdAt,value
2019-02-08T00:05:50.733Z,17.70
2019-02-08T00:08:20.826Z,23.60
2019-02-08T00:11:29.577Z,17.93
2019-02-08T00:14:12.000Z,16.93
2019-02-08T00:17:01.724Z,16.43
2019-02-08T00:19:44.223Z,16.40
2019-02-08T00:22:34.227Z,16.53
2019-02-08T00:25:24.594Z,18.07
2019-02-08T00:28:07.048Z,16.57
2019-02-08T00:30:58.242Z,17.57
2019-02-08T00:33:41.103Z,18.37
2019-02-08T00:36:30.822Z,20.00
2019-02-08T00:42:12.687Z,19.33
2019-02-08T00:48:08.235Z,17.80
2019-02-08T00:50:55.485Z,16.87
2019-02-08T00:53:38.711Z,13.77
2019-02-08T00:56:28.547Z,13.93
2019-02-08T00:59:18.402Z,14.10
2019-02-08T01:02:08.957Z,12.77
2019-02-08T01:04:52.869Z,14.87
2019-02-08T01:07:42.688Z,13.43
2019-02-08T01:10:32.646Z,14.63
2019-02-08T01:13:18.126Z,14.00
2019-02-08T01:16:01.550Z,12.33
2019-02-08T01:18:51.328Z,16.60
2019-02-08T01:21:41.188Z,13.37
2019-02-08T01:24:30.922Z,14.03
2019-02-08T01:27:13.386Z,14.23
2019-02-08T01:30:03.275Z,12.93
2019-02-08T01:32:53.038Z,12.67
2019-02-08T01:35:42.804Z,12.00
2019-02-08T01:38:32.579Z,11.20
2019-02-08T01:41:22.387Z,12.93
2019-02-08T01:44:12.108Z,10.87
2019-02-08T01:47:20.662Z,12.73
2019-02-08T01:50:03.007Z,11.23
2019-02-08T01:52:52.820Z,13.07
2019-02-08T01:55:42.525Z,9.97
2019-02-08T01:58:32.268Z,10.50
2019-02-08T02:01:14.229Z,12.47
2019-02-08T02:04:04.066Z,11.07
2019-02-08T02:09:57.500Z,11.20
2019-02-08T02:12:39.625Z,10.73
2019-02-08T02:15:29.436Z,9.77
2019-02-08T02:18:19.170Z,10.27
2019-02-08T02:21:09.014Z,9.67
2019-02-08T02:23:58.802Z,11.27
2019-02-08T02:29:45.231Z,11.17
2019-02-08T02:32:34.954Z,9.67
2019-02-08T02:35:18.939Z,11.40
2019-02-08T02:38:08.852Z,10.47
2019-02-08T02:40:50.879Z,12.03
2019-02-08T02:43:40.592Z,10.57
2019-02-08T02:46:22.797Z,12.33
2019-02-08T02:49:12.496Z,12.37
2019-02-08T02:51:55.294Z,13.80
2019-02-08T02:54:45.064Z,15.83
2019-02-08T02:57:27.395Z,13.83
2019-02-08T03:00:29.531Z,15.07
2019-02-08T03:03:12.879Z,12.63
2019-02-08T03:06:02.575Z,12.07
2019-02-08T03:08:45.277Z,11.13
2019-02-08T03:11:35.398Z,11.50
2019-02-08T03:14:17.474Z,11.07
2019-02-08T03:17:07.207Z,11.70
2019-02-08T03:19:56.937Z,8.70
2019-02-08T03:22:46.824Z,8.90
2019-02-08T03:25:37.208Z,8.07
2019-02-08T03:28:27.006Z,9.33
2019-02-08T03:31:16.812Z,9.73
2019-02-08T03:34:06.607Z,8.73
2019-02-08T03:36:56.385Z,8.57
2019-02-08T03:39:46.270Z,8.30
2019-02-08T03:42:36.031Z,8.63
2019-02-08T03:48:20.183Z,8.30
2019-02-08T03:51:10.000Z,9.10
2019-02-08T03:53:59.816Z,9.03
2019-02-08T03:56:49.639Z,8.57
2019-02-08T03:59:39.422Z,9.60
2019-02-08T04:02:29.279Z,11.10
2019-02-08T04:05:19.143Z,8.83
2019-02-08T04:08:08.989Z,8.80
2019-02-08T04:10:58.807Z,8.20
2019-02-08T04:13:48.579Z,7.63
2019-02-08T04:16:38.516Z,9.23
2019-02-08T04:19:28.267Z,9.93
2019-02-08T04:22:18.064Z,6.90
2019-02-08T04:25:08.607Z,7.43
2019-02-08T04:27:58.487Z,8.53
2019-02-08T04:30:48.262Z,7.07
2019-02-08T04:36:46.101Z,6.27
2019-02-08T04:39:29.005Z,8.07
2019-02-08T04:42:18.778Z,6.87
2019-02-08T04:45:09.385Z,8.07
2019-02-08T04:47:59.218Z,6.80
2019-02-08T04:50:49.017Z,7.60
2019-02-08T04:53:38.801Z,6.77
2019-02-08T04:56:28.702Z,9.33
2019-02-08T04:59:18.472Z,6.73
2019-02-08T05:02:08.263Z,4.77
2019-02-08T05:04:58.053Z,7.33
2019-02-08T05:07:47.922Z,5.33
2019-02-08T05:10:37.674Z,6.87
2019-02-08T05:13:27.463Z,9.30
2019-02-08T05:16:10.066Z,5.10
2019-02-08T05:18:59.810Z,6.13
2019-02-08T05:22:08.363Z,4.30
2019-02-08T05:24:58.081Z,5.17
2019-02-08T05:27:44.361Z,5.83
2019-02-08T05:30:35.240Z,3.70
2019-02-08T05:33:18.105Z,6.83
2019-02-08T05:39:10.002Z,6.93
2019-02-08T05:41:59.698Z,5.93
2019-02-08T05:44:41.859Z,6.63
2019-02-08T05:47:31.528Z,6.80
2019-02-08T05:50:15.298Z,20.00
2019-02-08T05:55:59.973Z,18.37
2019-02-08T05:58:49.754Z,12.53
2019-02-08T06:01:39.640Z,21.50
2019-02-08T06:04:29.706Z,15.53
2019-02-08T06:07:19.424Z,18.77
2019-02-08T06:10:02.454Z,16.63
2019-02-08T06:12:52.310Z,19.73
2019-02-08T06:15:42.329Z,14.10
2019-02-08T06:18:32.018Z,16.77
2019-02-08T06:21:14.244Z,9.87
2019-02-08T06:24:04.022Z,9.40
2019-02-08T06:26:46.448Z,8.80
2019-02-08T06:29:36.647Z,8.63
2019-02-08T06:32:26.386Z,9.40
2019-02-08T06:35:49.145Z,7.37
2019-02-08T06:38:32.703Z,8.77
2019-02-08T06:41:22.564Z,9.97
2019-02-08T06:44:12.332Z,7.60
2019-02-08T06:47:02.026Z,9.90
2019-02-08T06:49:48.558Z,6.10
2019-02-08T06:52:30.690Z,10.80
2019-02-08T06:55:20.500Z,11.40
2019-02-08T06:58:22.338Z,9.53
2019-02-08T07:01:30.931Z,6.67
2019-02-08T07:04:39.582Z,7.87
2019-02-08T07:07:48.193Z,7.23
2019-02-08T07:10:56.898Z,8.53
2019-02-08T07:14:13.387Z,9.63
2019-02-08T07:17:11.245Z,5.77
2019-02-08T07:20:19.868Z,7.70
2019-02-08T07:23:28.480Z,8.17
2019-02-08T07:26:37.132Z,7.03
2019-02-08T07:33:03.138Z,7.07
2019-02-08T07:36:04.616Z,6.37
2019-02-08T07:42:15.914Z,10.03
2019-02-08T07:45:06.221Z,10.23
2019-02-08T07:48:14.796Z,5.93
2019-02-08T07:51:23.417Z,7.57
2019-02-08T07:54:24.270Z,8.17
2019-02-08T07:57:32.841Z,8.27
2019-02-08T08:04:01.493Z,5.93
2019-02-08T08:07:08.665Z,6.43
2019-02-08T08:10:13.099Z,10.37
2019-02-08T08:13:21.657Z,6.73
2019-02-08T08:16:26.077Z,4.33
2019-02-08T08:19:55.239Z,7.13
2019-02-08T08:22:56.189Z,4.33
2019-02-08T08:26:25.460Z,6.10
2019-02-08T08:29:28.121Z,5.80
2019-02-08T08:35:53.833Z,6.83
2019-02-08T08:39:21.745Z,5.97
2019-02-08T08:42:24.311Z,8.23
2019-02-08T08:45:52.233Z,5.63
2019-02-08T08:49:20.199Z,4.60
2019-02-08T08:52:48.255Z,7.10
2019-02-08T08:56:16.175Z,5.00
2019-02-08T08:59:32.380Z,5.60
2019-02-08T09:03:00.358Z,6.47
2019-02-08T09:06:13.949Z,6.07
2019-02-08T09:09:16.082Z,8.23
2019-02-08T09:12:02.788Z,6.90
2019-02-08T09:15:17.140Z,5.47
2019-02-08T09:18:19.891Z,5.87
2019-02-08T09:21:47.769Z,6.40
2019-02-08T09:24:38.888Z,5.07
2019-02-08T09:28:06.759Z,6.13
2019-02-08T09:31:08.784Z,5.83
2019-02-08T09:34:36.772Z,5.43
2019-02-08T09:37:38.227Z,4.70
2019-02-08T09:41:06.056Z,6.20
2019-02-08T09:44:09.492Z,4.93
2019-02-08T09:47:37.318Z,3.70
2019-02-08T09:50:39.888Z,5.60
2019-02-08T09:54:07.788Z,3.13
2019-02-08T09:57:12.531Z,2.93
2019-02-08T10:00:40.416Z,4.77
2019-02-08T10:03:42.122Z,6.97
2019-02-08T10:07:10.046Z,5.63
2019-02-08T10:10:14.084Z,4.90
2019-02-08T10:13:41.920Z,8.70
2019-02-08T10:16:54.618Z,3.77
2019-02-08T10:23:26.273Z,7.47
2019-02-08T10:30:27.084Z,4.93
2019-02-08T10:33:34.602Z,2.30
2019-02-08T10:37:02.432Z,1.67
2019-02-08T10:40:03.534Z,1.83
2019-02-08T10:43:31.388Z,1.60
2019-02-08T10:46:32.462Z,3.17
2019-02-08T10:50:00.527Z,2.77
2019-02-08T10:53:01.917Z,2.87
2019-02-08T10:56:29.756Z,3.93
2019-02-08T10:59:31.071Z,2.67
2019-02-08T11:02:58.918Z,3.00
2019-02-08T11:06:00.384Z,1.23
2019-02-08T11:09:28.253Z,1.50
2019-02-08T11:12:29.596Z,3.27
2019-02-08T11:15:57.420Z,4.83
2019-02-08T11:19:25.460Z,2.57
2019-02-08T11:22:09.086Z,1.73
2019-02-08T11:24:51.754Z,1.73
2019-02-08T11:27:41.488Z,2.40
2019-02-08T11:30:23.622Z,1.60
2019-02-08T11:33:13.406Z,3.93
2019-02-08T11:36:03.209Z,1.60
2019-02-08T11:38:53.060Z,2.90
2019-02-08T11:41:43.094Z,1.53
2019-02-08T11:44:26.361Z,1.60
2019-02-08T11:47:16.133Z,1.17
2019-02-08T11:53:20.464Z,1.43
2019-02-08T11:55:51.123Z,1.87
2019-02-08T11:58:40.941Z,4.87
2019-02-08T12:07:40.754Z,4.20
2019-02-08T12:10:30.473Z,0.83
2019-02-08T12:13:13.267Z,5.60
2019-02-08T12:19:04.967Z,4.40
2019-02-08T12:21:56.075Z,2.13
2019-02-08T12:24:39.123Z,4.13
2019-02-08T12:27:28.811Z,4.83
2019-02-08T12:30:14.043Z,2.73
2019-02-08T12:33:03.869Z,3.83
2019-02-08T12:35:46.123Z,5.13
2019-02-08T12:38:35.779Z,1.87
2019-02-08T12:41:18.060Z,1.93
2019-02-08T12:44:08.321Z,3.07
2019-02-08T12:46:50.954Z,3.17
2019-02-08T12:49:40.727Z,2.73
2019-02-08T12:52:23.641Z,2.43
2019-02-08T12:55:13.355Z,1.77
2019-02-08T12:57:55.554Z,1.47
2019-02-08T13:03:40.143Z,1.57
2019-02-08T13:06:29.908Z,3.03
2019-02-08T13:09:19.636Z,0.80
2019-02-08T13:12:03.663Z,1.60
2019-02-08T13:14:46.024Z,2.10
2019-02-08T13:17:35.735Z,5.07
2019-02-08T13:20:44.600Z,3.87
2019-02-08T13:26:27.545Z,2.40
2019-02-08T13:29:17.242Z,1.20
2019-02-08T13:32:25.790Z,1.37
2019-02-08T13:35:08.982Z,2.20
2019-02-08T13:38:11.156Z,3.10
2019-02-08T13:40:53.502Z,2.77
2019-02-08T13:43:43.223Z,2.60
2019-02-08T13:46:25.671Z,1.73
2019-02-08T13:49:15.537Z,2.47
2019-02-08T13:51:58.396Z,0.97
2019-02-08T13:54:48.125Z,2.20
2019-02-08T13:57:30.909Z,3.47
2019-02-08T14:03:38.865Z,5.23
2019-02-08T14:06:28.678Z,2.10
2019-02-08T14:09:18.518Z,1.47
2019-02-08T14:12:08.508Z,1.87
2019-02-08T14:18:01.538Z,2.97
2019-02-08T14:20:43.888Z,2.17
2019-02-08T14:23:52.428Z,4.57
2019-02-08T14:26:36.620Z,1.77
2019-02-08T14:29:19.420Z,5.13
2019-02-08T14:32:09.212Z,7.33
2019-02-08T14:34:52.156Z,2.40
2019-02-08T14:37:41.870Z,1.87
2019-02-08T14:40:24.710Z,3.53
2019-02-08T14:43:14.452Z,2.30
2019-02-08T14:45:56.884Z,2.63
2019-02-08T14:51:47.692Z,2.00
2019-02-08T14:54:37.440Z,3.63
2019-02-08T14:57:20.455Z,4.97
2019-02-08T15:00:13.499Z,3.43
2019-02-08T15:02:55.498Z,4.17
2019-02-08T15:05:45.181Z,2.30
2019-02-08T15:08:27.543Z,3.57
2019-02-08T15:11:17.275Z,4.37
2019-02-08T15:16:34.587Z,1.57
2019-02-08T15:19:24.357Z,4.47
2019-02-08T15:22:14.228Z,2.43
2019-02-08T15:25:04.165Z,3.97
2019-02-08T15:28:13.129Z,3.60
2019-02-08T15:31:02.872Z,2.80
2019-02-08T15:33:52.639Z,4.90
2019-02-08T15:36:49.184Z,5.50
2019-02-08T15:39:26.948Z,4.70
2019-02-08T15:42:16.835Z,7.83
2019-02-08T15:48:21.573Z,3.77
2019-02-08T15:51:11.297Z,3.13
2019-02-08T15:54:01.167Z,4.90
2019-02-08T15:56:50.966Z,4.80
2019-02-08T15:59:40.701Z,3.00
2019-02-08T16:02:30.409Z,3.73
2019-02-08T16:05:13.609Z,3.40
2019-02-08T16:08:03.317Z,4.63
2019-02-08T16:10:45.679Z,9.63
2019-02-08T16:13:35.419Z,14.50
2019-02-08T16:16:19.003Z,11.40
2019-02-08T16:19:08.781Z,5.30
2019-02-08T16:21:50.756Z,4.33
2019-02-08T16:24:40.673Z,10.50
2019-02-08T16:27:30.475Z,3.77
2019-02-08T16:30:22.575Z,7.20
2019-02-08T16:36:16.003Z,5.83
2019-02-08T16:38:58.901Z,2.90
2019-02-08T16:41:48.705Z,2.93
2019-02-08T16:44:38.514Z,3.70
2019-02-08T16:47:28.294Z,2.90
2019-02-08T16:50:20.285Z,4.10
2019-02-08T16:53:10.138Z,3.57
2019-02-08T16:55:59.848Z,2.97
2019-02-08T16:58:49.546Z,6.70
2019-02-08T17:01:31.909Z,2.57
2019-02-08T17:04:21.743Z,3.93
2019-02-08T17:07:05.635Z,5.27
2019-02-08T17:12:56.229Z,8.37
2019-02-08T17:15:45.948Z,6.93
2019-02-08T17:18:29.601Z,5.90
2019-02-08T17:21:19.428Z,5.63
2019-02-08T17:24:02.303Z,8.73
2019-02-08T17:26:51.995Z,8.10
2019-02-08T17:29:34.519Z,9.27
2019-02-08T17:32:24.270Z,5.90
2019-02-08T17:35:11.283Z,5.23
2019-02-08T17:38:01.045Z,10.43
2019-02-08T17:40:44.051Z,5.97
2019-02-08T17:46:34.828Z,6.10
2019-02-08T17:49:24.607Z,6.10
2019-02-08T17:52:06.662Z,5.13
2019-02-08T17:57:51.810Z,4.80
2019-02-08T18:01:01.773Z,6.53
2019-02-08T18:03:51.456Z,4.77
2019-02-08T18:06:34.244Z,5.03
2019-02-08T18:09:24.078Z,8.80
2019-02-08T18:12:13.854Z,7.77
2019-02-08T18:15:03.870Z,5.30
2019-02-08T18:18:05.594Z,11.97
2019-02-08T18:20:48.518Z,6.70
2019-02-08T18:23:38.336Z,5.70
2019-02-08T18:26:28.104Z,7.17
2019-02-08T18:29:17.825Z,7.20
2019-02-08T18:32:07.773Z,3.80
2019-02-08T18:34:57.567Z,5.37
2019-02-08T18:37:47.350Z,3.83
2019-02-08T18:43:40.766Z,4.13
2019-02-08T18:46:23.748Z,4.77
2019-02-08T18:49:13.591Z,5.10
2019-02-08T18:52:03.354Z,8.63
2019-02-08T18:54:53.185Z,7.40
2019-02-08T18:57:42.980Z,6.20
2019-02-08T19:00:40.033Z,5.17
2019-02-08T19:03:24.219Z,6.07
2019-02-08T19:06:14.041Z,5.20
2019-02-08T19:09:22.880Z,7.27
2019-02-08T19:12:06.764Z,8.97
2019-02-08T19:14:56.608Z,8.93
2019-02-08T19:17:39.321Z,6.80
2019-02-08T19:20:29.142Z,5.13
2019-02-08T19:23:18.922Z,8.30
2019-02-08T19:26:08.633Z,8.57
2019-02-08T19:28:58.356Z,5.73
2019-02-08T19:31:48.093Z,6.23
2019-02-08T19:34:30.094Z,7.60
2019-02-08T19:37:19.809Z,6.77
2019-02-08T19:40:06.565Z,7.57
2019-02-08T19:42:56.302Z,6.73
2019-02-08T19:45:39.161Z,7.67
2019-02-08T19:48:28.910Z,10.07
2019-02-08T19:51:12.795Z,10.83
2019-02-08T19:54:02.458Z,9.80
2019-02-08T19:56:45.038Z,7.27
2019-02-08T19:59:34.841Z,9.37
2019-02-08T20:02:16.821Z,11.33
2019-02-08T20:08:24.297Z,8.63
2019-02-08T20:11:14.262Z,8.27
2019-02-08T20:14:04.249Z,7.60
2019-02-08T20:16:54.027Z,7.20
2019-02-08T20:20:02.913Z,7.33
2019-02-08T20:22:52.688Z,6.83
2019-02-08T20:25:42.470Z,6.10
2019-02-08T20:28:32.275Z,6.77
2019-02-08T20:31:22.126Z,4.93
2019-02-08T20:34:11.877Z,7.20
2019-02-08T20:36:54.729Z,6.03
2019-02-08T20:39:44.563Z,9.80
2019-02-08T20:42:34.323Z,7.00
2019-02-08T20:45:43.080Z,8.13
2019-02-08T20:48:25.393Z,6.67
2019-02-08T20:51:15.294Z,6.93
2019-02-08T20:54:05.109Z,5.80
2019-02-08T20:56:58.990Z,11.27
2019-02-08T20:59:39.189Z,7.10
2019-02-08T21:02:28.998Z,6.50
2019-02-08T21:05:18.891Z,9.73
2019-02-08T21:11:22.879Z,6.70
2019-02-08T21:14:12.709Z,6.33
2019-02-08T21:17:02.499Z,6.90
2019-02-08T21:20:11.362Z,6.30
2019-02-08T21:23:01.105Z,7.47
2019-02-08T21:25:50.364Z,7.13
2019-02-08T21:28:35.345Z,7.10
2019-02-08T21:31:25.142Z,8.17
2019-02-08T21:34:14.983Z,8.90
2019-02-08T21:37:04.723Z,8.93
2019-02-08T21:39:54.520Z,8.17
2019-02-08T21:42:44.384Z,8.00
2019-02-08T21:45:35.043Z,6.50
2019-02-08T21:48:24.890Z,4.53
2019-02-08T21:51:14.662Z,5.23
2019-02-08T21:54:23.572Z,5.93
2019-02-08T21:57:13.398Z,6.63
2019-02-08T22:00:03.258Z,3.50
2019-02-08T22:02:53.473Z,2.90
2019-02-08T22:05:58.306Z,5.30
2019-02-08T22:08:48.316Z,4.13
2019-02-08T22:11:32.494Z,3.03
2019-02-08T22:14:35.006Z,3.03
2019-02-08T22:17:17.651Z,4.50
2019-02-08T22:20:09.260Z,3.27
2019-02-08T22:22:51.185Z,5.37
2019-02-08T22:25:40.968Z,6.03
2019-02-08T22:28:23.919Z,4.50
2019-02-08T22:31:13.688Z,5.13
2019-02-08T22:33:55.620Z,3.30
2019-02-08T22:36:45.351Z,4.27
2019-02-08T22:39:28.199Z,2.87
2019-02-08T22:42:17.946Z,4.03
2019-02-08T22:45:08.601Z,3.37
2019-02-08T22:47:53.860Z,2.67
2019-02-08T22:50:43.738Z,6.77
2019-02-08T22:53:33.513Z,4.73
2019-02-08T22:56:23.280Z,3.73
2019-02-08T23:02:09.498Z,3.43
2019-02-08T23:04:59.204Z,5.97
2019-02-08T23:07:41.474Z,6.40
2019-02-08T23:10:31.206Z,5.43
2019-02-08T23:13:14.932Z,5.50
2019-02-08T23:16:25.170Z,5.67
2019-02-08T23:19:07.158Z,6.00
2019-02-08T23:21:56.942Z,4.10
2019-02-08T23:24:39.142Z,5.20
2019-02-08T23:27:28.950Z,4.60
2019-02-08T23:30:11.617Z,5.30
2019-02-08T23:33:20.221Z,3.63
2019-02-08T23:39:04.428Z,3.33
2019-02-08T23:41:54.303Z,3.67
2019-02-08T23:44:44.108Z,4.63
2019-02-08T23:47:33.872Z,3.10
2019-02-08T23:50:24.084Z,3.43
2019-02-08T23:53:13.788Z,3.77
2019-02-08T23:55:55.884Z,3.50
2019-02-08T23:58:45.673Z,3.20
